sensor_id;sensor_type;location;lat;lon;timestamp;temperature;humidity
18888;DHT22;9576;47.792;9.628;2023-07-28T00:00:57;15.40;99.90
18888;DHT22;9576;47.792;9.628;2023-07-28T00:03:59;15.40;99.90
18888;DHT22;9576;47.792;9.628;2023-07-28T00:07:03;15.40;99.90
18888;DHT22;9576;47.792;9.628;2023-07-28T00:10:06;15.40;99.90
18888;DHT22;9576;47.792;9.628;2023-07-28T00:13:08;15.50;99.90
18888;DHT22;9576;47.792;9.628;2023-07-28T00:16:10;15.50;99.90
18888;DHT22;9576;47.792;9.628;2023-07-28T00:19:12;15.50;99.90
18888;DHT22;9576;47.792;9.628;2023-07-28T00:22:15;15.50;99.90
18888;DHT22;9576;47.792;9.628;2023-07-28T00:25:17;15.50;99.90
18888;DHT22;9576;47.792;9.628;2023-07-28T00:28:19;15.50;99.90
18888;DHT22;9576;47.792;9.628;2023-07-28T00:31:21;15.50;99.90
18888;DHT22;9576;47.792;9.628;2023-07-28T00:34:23;15.40;99.90
18888;DHT22;9576;47.792;9.628;2023-07-28T00:37:26;15.40;99.90
18888;DHT22;9576;47.792;9.628;2023-07-28T00:40:28;15.40;99.90
18888;DHT22;9576;47.792;9.628;2023-07-28T00:43:30;15.40;99.90
18888;DHT22;9576;47.792;9.628;2023-07-28T00:46:32;15.30;99.90
18888;DHT22;9576;47.792;9.628;2023-07-28T00:49:34;15.30;99.90
18888;DHT22;9576;47.792;9.628;2023-07-28T00:52:37;15.30;99.90
18888;DHT22;9576;47.792;9.628;2023-07-28T00:55:39;15.20;99.90
18888;DHT22;9576;47.792;9.628;2023-07-28T00:58:42;15.10;99.90
18888;DHT22;9576;47.792;9.628;2023-07-28T01:01:44;15.00;99.90
18888;DHT22;9576;47.792;9.628;2023-07-28T01:04:47;15.00;99.90
18888;DHT22;9576;47.792;9.628;2023-07-28T01:07:55;14.90;99.90
18888;DHT22;9576;47.792;9.628;2023-07-28T01:11:00;14.90;99.90
18888;DHT22;9576;47.792;9.628;2023-07-28T01:14:03;14.90;99.90
18888;DHT22;9576;47.792;9.628;2023-07-28T01:17:05;14.90;99.90
18888;DHT22;9576;47.792;9.628;2023-07-28T01:20:08;14.90;99.90
18888;DHT22;9576;47.792;9.628;2023-07-28T01:23:17;14.90;99.90
18888;DHT22;9576;47.792;9.628;2023-07-28T01:26:30;14.90;99.90
18888;DHT22;9576;47.792;9.628;2023-07-28T01:29:31;14.70;99.90
18888;DHT22;9576;47.792;9.628;2023-07-28T01:32:33;14.60;99.90
18888;DHT22;9576;47.792;9.628;2023-07-28T01:35:36;14.50;99.90
18888;DHT22;9576;47.792;9.628;2023-07-28T01:38:39;14.40;99.90
18888;DHT22;9576;47.792;9.628;2023-07-28T01:41:42;14.40;99.90
18888;DHT22;9576;47.792;9.628;2023-07-28T01:44:44;14.40;99.90
18888;DHT22;9576;47.792;9.628;2023-07-28T01:47:46;14.30;99.90
18888;DHT22;9576;47.792;9.628;2023-07-28T01:50:48;14.30;99.90
18888;DHT22;9576;47.792;9.628;2023-07-28T01:53:50;14.30;99.90
18888;DHT22;9576;47.792;9.628;2023-07-28T01:56:53;14.30;99.90
18888;DHT22;9576;47.792;9.628;2023-07-28T01:59:55;14.20;99.90
18888;DHT22;9576;47.792;9.628;2023-07-28T02:02:57;14.30;99.90
18888;DHT22;9576;47.792;9.628;2023-07-28T02:06:02;14.20;99.90
18888;DHT22;9576;47.792;9.628;2023-07-28T02:09:04;14.10;99.90
18888;DHT22;9576;47.792;9.628;2023-07-28T02:12:07;14.10;99.90
18888;DHT22;9576;47.792;9.628;2023-07-28T02:15:09;14.00;99.90
18888;DHT22;9576;47.792;9.628;2023-07-28T02:18:11;14.00;99.90
18888;DHT22;9576;47.792;9.628;2023-07-28T02:21:13;14.00;99.90
18888;DHT22;9576;47.792;9.628;2023-07-28T02:24:15;13.90;99.90
18888;DHT22;9576;47.792;9.628;2023-07-28T02:27:18;13.90;99.90
18888;DHT22;9576;47.792;9.628;2023-07-28T02:30:20;13.80;99.90
18888;DHT22;9576;47.792;9.628;2023-07-28T02:33:22;13.80;99.90
18888;DHT22;9576;47.792;9.628;2023-07-28T02:36:24;13.80;99.90
18888;DHT22;9576;47.792;9.628;2023-07-28T02:39:26;13.80;99.90
18888;DHT22;9576;47.792;9.628;2023-07-28T02:42:29;13.90;99.90
18888;DHT22;9576;47.792;9.628;2023-07-28T02:45:31;13.90;99.90
18888;DHT22;9576;47.792;9.628;2023-07-28T02:48:33;14.00;99.90
18888;DHT22;9576;47.792;9.628;2023-07-28T02:51:35;14.00;99.90
18888;DHT22;9576;47.792;9.628;2023-07-28T02:54:37;14.00;99.90
18888;DHT22;9576;47.792;9.628;2023-07-28T02:57:40;14.10;99.90
18888;DHT22;9576;47.792;9.628;2023-07-28T03:00:43;14.10;99.90
18888;DHT22;9576;47.792;9.628;2023-07-28T03:03:47;14.20;99.90
18888;DHT22;9576;47.792;9.628;2023-07-28T03:06:49;14.20;99.90
18888;DHT22;9576;47.792;9.628;2023-07-28T03:09:51;14.30;99.90
18888;DHT22;9576;47.792;9.628;2023-07-28T03:12:54;14.30;99.90
18888;DHT22;9576;47.792;9.628;2023-07-28T03:15:56;14.40;99.90
18888;DHT22;9576;47.792;9.628;2023-07-28T03:18:58;14.40;99.90
18888;DHT22;9576;47.792;9.628;2023-07-28T03:22:00;14.50;99.90
18888;DHT22;9576;47.792;9.628;2023-07-28T03:25:02;14.50;99.90
18888;DHT22;9576;47.792;9.628;2023-07-28T03:28:06;14.60;99.90
18888;DHT22;9576;47.792;9.628;2023-07-28T03:31:08;14.60;99.90
18888;DHT22;9576;47.792;9.628;2023-07-28T03:34:10;14.50;99.90
18888;DHT22;9576;47.792;9.628;2023-07-28T03:37:11;14.40;99.90
18888;DHT22;9576;47.792;9.628;2023-07-28T03:40:13;14.40;99.90
18888;DHT22;9576;47.792;9.628;2023-07-28T03:43:17;14.50;99.90
18888;DHT22;9576;47.792;9.628;2023-07-28T03:46:19;14.60;99.90
18888;DHT22;9576;47.792;9.628;2023-07-28T03:49:20;14.60;99.90
18888;DHT22;9576;47.792;9.628;2023-07-28T03:52:22;14.60;99.90
18888;DHT22;9576;47.792;9.628;2023-07-28T03:55:24;14.70;99.90
18888;DHT22;9576;47.792;9.628;2023-07-28T03:58:28;14.70;99.90
18888;DHT22;9576;47.792;9.628;2023-07-28T04:01:29;14.70;99.90
18888;DHT22;9576;47.792;9.628;2023-07-28T04:04:31;14.70;99.90
18888;DHT22;9576;47.792;9.628;2023-07-28T04:07:33;14.80;99.90
18888;DHT22;9576;47.792;9.628;2023-07-28T04:10:35;14.80;99.90
18888;DHT22;9576;47.792;9.628;2023-07-28T04:13:38;14.80;99.90
18888;DHT22;9576;47.792;9.628;2023-07-28T04:16:40;14.80;99.90
18888;DHT22;9576;47.792;9.628;2023-07-28T04:19:42;14.70;99.90
18888;DHT22;9576;47.792;9.628;2023-07-28T04:22:44;14.70;99.90
18888;DHT22;9576;47.792;9.628;2023-07-28T04:25:47;14.70;99.90
18888;DHT22;9576;47.792;9.628;2023-07-28T04:28:50;14.70;99.90
18888;DHT22;9576;47.792;9.628;2023-07-28T04:31:52;14.70;99.90
18888;DHT22;9576;47.792;9.628;2023-07-28T04:34:54;14.80;99.90
18888;DHT22;9576;47.792;9.628;2023-07-28T04:37:55;14.90;99.90
18888;DHT22;9576;47.792;9.628;2023-07-28T04:40:57;15.00;99.90
18888;DHT22;9576;47.792;9.628;2023-07-28T04:44:01;15.00;99.90
18888;DHT22;9576;47.792;9.628;2023-07-28T04:47:03;15.10;99.90
18888;DHT22;9576;47.792;9.628;2023-07-28T04:50:05;15.20;99.90
18888;DHT22;9576;47.792;9.628;2023-07-28T04:53:07;15.20;99.90
18888;DHT22;9576;47.792;9.628;2023-07-28T04:56:09;15.20;99.90
18888;DHT22;9576;47.792;9.628;2023-07-28T04:59:12;15.10;99.90
18888;DHT22;9576;47.792;9.628;2023-07-28T05:02:14;15.10;99.90
18888;DHT22;9576;47.792;9.628;2023-07-28T05:05:16;15.20;99.90
18888;DHT22;9576;47.792;9.628;2023-07-28T05:08:18;15.30;99.90
18888;DHT22;9576;47.792;9.628;2023-07-28T05:11:20;15.40;99.90
18888;DHT22;9576;47.792;9.628;2023-07-28T05:14:23;15.50;99.90
18888;DHT22;9576;47.792;9.628;2023-07-28T05:17:25;15.60;99.90
18888;DHT22;9576;47.792;9.628;2023-07-28T05:20:27;15.70;99.90
18888;DHT22;9576;47.792;9.628;2023-07-28T05:23:29;15.80;99.90
18888;DHT22;9576;47.792;9.628;2023-07-28T05:26:31;15.80;99.90
18888;DHT22;9576;47.792;9.628;2023-07-28T05:29:34;15.90;99.90
18888;DHT22;9576;47.792;9.628;2023-07-28T05:32:36;16.00;99.90
18888;DHT22;9576;47.792;9.628;2023-07-28T05:35:38;16.10;99.90
18888;DHT22;9576;47.792;9.628;2023-07-28T05:38:40;16.10;99.90
18888;DHT22;9576;47.792;9.628;2023-07-28T05:41:42;16.30;99.90
18888;DHT22;9576;47.792;9.628;2023-07-28T05:44:45;16.30;99.90
18888;DHT22;9576;47.792;9.628;2023-07-28T05:47:47;16.40;99.90
18888;DHT22;9576;47.792;9.628;2023-07-28T05:50:49;16.50;99.90
18888;DHT22;9576;47.792;9.628;2023-07-28T05:53:52;16.50;99.90
18888;DHT22;9576;47.792;9.628;2023-07-28T05:56:53;16.60;99.90
18888;DHT22;9576;47.792;9.628;2023-07-28T05:59:57;16.70;99.90
18888;DHT22;9576;47.792;9.628;2023-07-28T06:02:59;16.90;99.90
18888;DHT22;9576;47.792;9.628;2023-07-28T06:06:01;17.00;99.90
18888;DHT22;9576;47.792;9.628;2023-07-28T06:09:03;17.10;99.90
18888;DHT22;9576;47.792;9.628;2023-07-28T06:12:06;17.20;99.90
18888;DHT22;9576;47.792;9.628;2023-07-28T06:15:10;17.30;99.90
18888;DHT22;9576;47.792;9.628;2023-07-28T06:18:11;17.40;99.90
18888;DHT22;9576;47.792;9.628;2023-07-28T06:21:13;17.40;99.90
18888;DHT22;9576;47.792;9.628;2023-07-28T06:24:15;17.50;99.90
18888;DHT22;9576;47.792;9.628;2023-07-28T06:27:17;17.50;99.90
18888;DHT22;9576;47.792;9.628;2023-07-28T06:30:21;17.60;99.90
18888;DHT22;9576;47.792;9.628;2023-07-28T06:33:23;17.70;99.90
18888;DHT22;9576;47.792;9.628;2023-07-28T06:36:25;17.80;99.90
18888;DHT22;9576;47.792;9.628;2023-07-28T06:39:28;17.90;99.90
18888;DHT22;9576;47.792;9.628;2023-07-28T06:42:30;18.00;99.90
18888;DHT22;9576;47.792;9.628;2023-07-28T06:45:34;18.10;99.90
18888;DHT22;9576;47.792;9.628;2023-07-28T06:48:35;18.20;99.90
18888;DHT22;9576;47.792;9.628;2023-07-28T06:51:37;18.20;99.90
18888;DHT22;9576;47.792;9.628;2023-07-28T06:54:40;18.40;99.90
18888;DHT22;9576;47.792;9.628;2023-07-28T06:57:42;18.70;99.90
18888;DHT22;9576;47.792;9.628;2023-07-28T07:00:45;19.10;99.90
18888;DHT22;9576;47.792;9.628;2023-07-28T07:03:47;19.40;99.90
18888;DHT22;9576;47.792;9.628;2023-07-28T07:06:49;19.60;99.90
18888;DHT22;9576;47.792;9.628;2023-07-28T07:09:51;19.70;99.90
18888;DHT22;9576;47.792;9.628;2023-07-28T07:12:53;19.70;99.90
18888;DHT22;9576;47.792;9.628;2023-07-28T07:15:58;19.80;99.90
18888;DHT22;9576;47.792;9.628;2023-07-28T07:19:01;19.90;99.90
18888;DHT22;9576;47.792;9.628;2023-07-28T07:22:03;20.00;99.90
18888;DHT22;9576;47.792;9.628;2023-07-28T07:25:05;20.10;99.90
18888;DHT22;9576;47.792;9.628;2023-07-28T07:28:07;20.10;99.90
18888;DHT22;9576;47.792;9.628;2023-07-28T07:31:13;20.20;99.90
18888;DHT22;9576;47.792;9.628;2023-07-28T07:34:15;20.20;99.90
18888;DHT22;9576;47.792;9.628;2023-07-28T07:37:18;20.20;99.90
18888;DHT22;9576;47.792;9.628;2023-07-28T07:40:20;20.20;99.90
18888;DHT22;9576;47.792;9.628;2023-07-28T07:43:22;20.30;99.90
18888;DHT22;9576;47.792;9.628;2023-07-28T07:46:25;20.40;99.90
18888;DHT22;9576;47.792;9.628;2023-07-28T07:49:27;20.70;99.90
18888;DHT22;9576;47.792;9.628;2023-07-28T07:52:29;20.90;99.90
18888;DHT22;9576;47.792;9.628;2023-07-28T07:55:31;21.10;99.90
18888;DHT22;9576;47.792;9.628;2023-07-28T07:58:33;21.10;99.90
18888;DHT22;9576;47.792;9.628;2023-07-28T08:01:37;21.20;99.90
18888;DHT22;9576;47.792;9.628;2023-07-28T08:04:38;21.20;99.90
18888;DHT22;9576;47.792;9.628;2023-07-28T08:07:40;21.20;99.90
18888;DHT22;9576;47.792;9.628;2023-07-28T08:10:42;21.30;99.90
18888;DHT22;9576;47.792;9.628;2023-07-28T08:13:44;21.50;99.90
18888;DHT22;9576;47.792;9.628;2023-07-28T08:16:50;21.70;99.90
18888;DHT22;9576;47.792;9.628;2023-07-28T08:19:52;21.90;99.90
18888;DHT22;9576;47.792;9.628;2023-07-28T08:22:54;21.90;99.90
18888;DHT22;9576;47.792;9.628;2023-07-28T08:25:56;21.80;99.90
18888;DHT22;9576;47.792;9.628;2023-07-28T08:28:58;21.90;99.90
18888;DHT22;9576;47.792;9.628;2023-07-28T08:32:01;22.00;99.90
18888;DHT22;9576;47.792;9.628;2023-07-28T08:35:03;22.10;99.90
18888;DHT22;9576;47.792;9.628;2023-07-28T08:38:05;22.20;99.90
18888;DHT22;9576;47.792;9.628;2023-07-28T08:41:07;22.40;99.90
18888;DHT22;9576;47.792;9.628;2023-07-28T08:44:10;22.50;99.90
18888;DHT22;9576;47.792;9.628;2023-07-28T08:47:14;22.40;99.90
18888;DHT22;9576;47.792;9.628;2023-07-28T08:50:16;22.40;99.90
18888;DHT22;9576;47.792;9.628;2023-07-28T08:53:18;22.30;99.90
18888;DHT22;9576;47.792;9.628;2023-07-28T08:56:20;22.30;99.90
18888;DHT22;9576;47.792;9.628;2023-07-28T08:59:25;22.30;99.90
18888;DHT22;9576;47.792;9.628;2023-07-28T09:02:29;22.50;99.90
18888;DHT22;9576;47.792;9.628;2023-07-28T09:05:33;22.60;99.90
18888;DHT22;9576;47.792;9.628;2023-07-28T09:08:36;22.70;99.90
18888;DHT22;9576;47.792;9.628;2023-07-28T09:11:44;22.70;99.90
18888;DHT22;9576;47.792;9.628;2023-07-28T09:14:46;22.60;99.90
18888;DHT22;9576;47.792;9.628;2023-07-28T09:17:49;22.60;99.90
18888;DHT22;9576;47.792;9.628;2023-07-28T09:20:51;22.50;99.90
18888;DHT22;9576;47.792;9.628;2023-07-28T09:23:53;22.50;99.90
18888;DHT22;9576;47.792;9.628;2023-07-28T09:26:55;22.30;99.90
18888;DHT22;9576;47.792;9.628;2023-07-28T09:29:57;22.30;99.90
18888;DHT22;9576;47.792;9.628;2023-07-28T09:33:01;22.40;99.90
18888;DHT22;9576;47.792;9.628;2023-07-28T09:36:11;22.40;99.90
18888;DHT22;9576;47.792;9.628;2023-07-28T09:39:13;22.40;99.90
18888;DHT22;9576;47.792;9.628;2023-07-28T09:42:16;22.40;99.90
18888;DHT22;9576;47.792;9.628;2023-07-28T09:45:18;22.30;99.90
18888;DHT22;9576;47.792;9.628;2023-07-28T09:48:23;22.30;99.90
18888;DHT22;9576;47.792;9.628;2023-07-28T09:51:29;22.20;99.90
18888;DHT22;9576;47.792;9.628;2023-07-28T09:54:37;22.20;99.90
18888;DHT22;9576;47.792;9.628;2023-07-28T09:57:43;22.20;99.90
18888;DHT22;9576;47.792;9.628;2023-07-28T10:00:46;22.20;99.90
18888;DHT22;9576;47.792;9.628;2023-07-28T10:03:50;22.20;99.90
18888;DHT22;9576;47.792;9.628;2023-07-28T10:06:52;22.30;99.90
18888;DHT22;9576;47.792;9.628;2023-07-28T10:09:57;22.30;99.90
18888;DHT22;9576;47.792;9.628;2023-07-28T10:12:59;22.30;99.90
18888;DHT22;9576;47.792;9.628;2023-07-28T10:16:01;22.30;99.90
18888;DHT22;9576;47.792;9.628;2023-07-28T10:19:05;22.40;99.90
18888;DHT22;9576;47.792;9.628;2023-07-28T10:22:08;22.50;99.90
18888;DHT22;9576;47.792;9.628;2023-07-28T10:25:10;22.70;99.90
18888;DHT22;9576;47.792;9.628;2023-07-28T10:28:29;22.90;99.90
18888;DHT22;9576;47.792;9.628;2023-07-28T10:31:32;23.10;99.90
18888;DHT22;9576;47.792;9.628;2023-07-28T10:34:35;23.40;99.90
18888;DHT22;9576;47.792;9.628;2023-07-28T10:37:37;23.70;99.90
18888;DHT22;9576;47.792;9.628;2023-07-28T10:40:39;24.00;99.90
18888;DHT22;9576;47.792;9.628;2023-07-28T10:43:42;24.20;99.90
18888;DHT22;9576;47.792;9.628;2023-07-28T10:46:44;24.20;99.90
18888;DHT22;9576;47.792;9.628;2023-07-28T10:49:48;24.20;99.90
18888;DHT22;9576;47.792;9.628;2023-07-28T10:52:50;24.10;99.90
18888;DHT22;9576;47.792;9.628;2023-07-28T10:55:53;24.00;99.90
18888;DHT22;9576;47.792;9.628;2023-07-28T10:58:58;24.00;99.90
18888;DHT22;9576;47.792;9.628;2023-07-28T11:02:00;24.20;99.90
18888;DHT22;9576;47.792;9.628;2023-07-28T11:05:09;24.50;99.90
18888;DHT22;9576;47.792;9.628;2023-07-28T11:08:12;24.80;99.90
18888;DHT22;9576;47.792;9.628;2023-07-28T11:11:14;25.10;99.90
18888;DHT22;9576;47.792;9.628;2023-07-28T11:14:17;25.30;99.90
18888;DHT22;9576;47.792;9.628;2023-07-28T11:17:19;25.30;99.90
18888;DHT22;9576;47.792;9.628;2023-07-28T11:20:26;25.20;99.90
18888;DHT22;9576;47.792;9.628;2023-07-28T11:23:28;25.10;99.90
18888;DHT22;9576;47.792;9.628;2023-07-28T11:26:31;25.10;99.90
18888;DHT22;9576;47.792;9.628;2023-07-28T11:29:34;25.10;99.90
18888;DHT22;9576;47.792;9.628;2023-07-28T11:32:36;25.30;99.90
18888;DHT22;9576;47.792;9.628;2023-07-28T11:35:40;25.50;99.90
18888;DHT22;9576;47.792;9.628;2023-07-28T11:38:45;25.80;99.90
18888;DHT22;9576;47.792;9.628;2023-07-28T11:41:47;26.00;99.90
18888;DHT22;9576;47.792;9.628;2023-07-28T11:44:50;25.80;99.90
18888;DHT22;9576;47.792;9.628;2023-07-28T11:47:55;25.70;99.90
18888;DHT22;9576;47.792;9.628;2023-07-28T11:50:59;25.60;99.90
18888;DHT22;9576;47.792;9.628;2023-07-28T11:54:01;25.60;99.90
18888;DHT22;9576;47.792;9.628;2023-07-28T11:57:03;25.40;99.90
18888;DHT22;9576;47.792;9.628;2023-07-28T12:00:07;25.40;99.90
18888;DHT22;9576;47.792;9.628;2023-07-28T12:03:11;25.30;99.90
18888;DHT22;9576;47.792;9.628;2023-07-28T12:06:14;25.20;99.90
18888;DHT22;9576;47.792;9.628;2023-07-28T12:09:16;25.10;99.90
18888;DHT22;9576;47.792;9.628;2023-07-28T12:12:20;25.10;99.90
18888;DHT22;9576;47.792;9.628;2023-07-28T12:15:24;25.10;99.90
18888;DHT22;9576;47.792;9.628;2023-07-28T12:18:30;25.10;99.90
18888;DHT22;9576;47.792;9.628;2023-07-28T12:21:33;25.30;99.90
18888;DHT22;9576;47.792;9.628;2023-07-28T12:24:35;25.40;99.90
18888;DHT22;9576;47.792;9.628;2023-07-28T12:27:37;25.50;99.90
18888;DHT22;9576;47.792;9.628;2023-07-28T12:30:39;25.60;99.90
18888;DHT22;9576;47.792;9.628;2023-07-28T12:33:41;25.70;99.90
18888;DHT22;9576;47.792;9.628;2023-07-28T12:36:44;25.90;99.90
18888;DHT22;9576;47.792;9.628;2023-07-28T12:39:47;26.00;99.90
18888;DHT22;9576;47.792;9.628;2023-07-28T12:42:49;26.10;99.90
18888;DHT22;9576;47.792;9.628;2023-07-28T12:45:51;26.10;99.90
18888;DHT22;9576;47.792;9.628;2023-07-28T12:48:53;26.00;99.90
18888;DHT22;9576;47.792;9.628;2023-07-28T12:51:57;26.10;99.90
18888;DHT22;9576;47.792;9.628;2023-07-28T12:54:59;26.30;99.90
18888;DHT22;9576;47.792;9.628;2023-07-28T12:58:01;26.60;99.90
18888;DHT22;9576;47.792;9.628;2023-07-28T13:01:03;27.00;99.90
18888;DHT22;9576;47.792;9.628;2023-07-28T13:04:05;27.40;99.90
18888;DHT22;9576;47.792;9.628;2023-07-28T13:07:08;27.90;99.90
18888;DHT22;9576;47.792;9.628;2023-07-28T13:10:11;28.20;99.90
18888;DHT22;9576;47.792;9.628;2023-07-28T13:13:13;28.30;99.90
18888;DHT22;9576;47.792;9.628;2023-07-28T13:16:14;28.10;99.90
18888;DHT22;9576;47.792;9.628;2023-07-28T13:19:16;27.70;99.90
18888;DHT22;9576;47.792;9.628;2023-07-28T13:22:20;27.10;99.90
18888;DHT22;9576;47.792;9.628;2023-07-28T13:25:22;27.10;99.90
18888;DHT22;9576;47.792;9.628;2023-07-28T13:28:23;26.90;99.90
18888;DHT22;9576;47.792;9.628;2023-07-28T13:31:26;26.70;99.90
18888;DHT22;9576;47.792;9.628;2023-07-28T13:34:28;26.50;99.90
18888;DHT22;9576;47.792;9.628;2023-07-28T13:37:31;26.40;99.90
18888;DHT22;9576;47.792;9.628;2023-07-28T13:40:34;26.30;99.90
18888;DHT22;9576;47.792;9.628;2023-07-28T13:43:36;26.10;99.90
18888;DHT22;9576;47.792;9.628;2023-07-28T13:46:38;26.40;99.90
18888;DHT22;9576;47.792;9.628;2023-07-28T13:49:40;27.20;99.90
18888;DHT22;9576;47.792;9.628;2023-07-28T13:52:44;28.10;99.90
18888;DHT22;9576;47.792;9.628;2023-07-28T13:55:45;29.10;99.90
18888;DHT22;9576;47.792;9.628;2023-07-28T13:58:47;30.00;99.90
18888;DHT22;9576;47.792;9.628;2023-07-28T14:01:49;30.40;99.90
18888;DHT22;9576;47.792;9.628;2023-07-28T14:04:51;30.30;99.90
18888;DHT22;9576;47.792;9.628;2023-07-28T14:07:54;30.90;99.90
18888;DHT22;9576;47.792;9.628;2023-07-28T14:10:56;30.80;99.90
18888;DHT22;9576;47.792;9.628;2023-07-28T14:13:58;30.50;99.90
18888;DHT22;9576;47.792;9.628;2023-07-28T14:17:01;30.30;99.90
18888;DHT22;9576;47.792;9.628;2023-07-28T14:20:03;30.00;99.90
18888;DHT22;9576;47.792;9.628;2023-07-28T14:23:22;30.60;99.90
18888;DHT22;9576;47.792;9.628;2023-07-28T14:26:25;31.00;99.90
18888;DHT22;9576;47.792;9.628;2023-07-28T14:29:27;30.90;99.90
18888;DHT22;9576;47.792;9.628;2023-07-28T14:32:29;30.80;99.90
18888;DHT22;9576;47.792;9.628;2023-07-28T14:35:30;30.40;99.90
18888;DHT22;9576;47.792;9.628;2023-07-28T14:38:34;30.20;99.90
18888;DHT22;9576;47.792;9.628;2023-07-28T14:41:36;30.50;99.90
18888;DHT22;9576;47.792;9.628;2023-07-28T14:44:38;31.00;99.90
18888;DHT22;9576;47.792;9.628;2023-07-28T14:47:39;30.90;99.90
18888;DHT22;9576;47.792;9.628;2023-07-28T14:50:41;30.50;99.90
18888;DHT22;9576;47.792;9.628;2023-07-28T14:53:45;29.50;99.90
18888;DHT22;9576;47.792;9.628;2023-07-28T14:56:47;28.80;99.90
18888;DHT22;9576;47.792;9.628;2023-07-28T14:59:49;28.30;99.90
18888;DHT22;9576;47.792;9.628;2023-07-28T15:02:51;27.90;99.90
18888;DHT22;9576;47.792;9.628;2023-07-28T15:05:53;27.90;99.90
18888;DHT22;9576;47.792;9.628;2023-07-28T15:08:57;27.60;99.90
18888;DHT22;9576;47.792;9.628;2023-07-28T15:11:58;27.30;99.90
18888;DHT22;9576;47.792;9.628;2023-07-28T15:15:00;26.90;99.90
18888;DHT22;9576;47.792;9.628;2023-07-28T15:18:03;26.50;99.90
18888;DHT22;9576;47.792;9.628;2023-07-28T15:21:04;26.40;99.90
18888;DHT22;9576;47.792;9.628;2023-07-28T15:24:08;26.30;99.90
18888;DHT22;9576;47.792;9.628;2023-07-28T15:27:10;26.20;99.90
18888;DHT22;9576;47.792;9.628;2023-07-28T15:30:12;26.00;99.90
18888;DHT22;9576;47.792;9.628;2023-07-28T15:33:14;25.80;99.90
18888;DHT22;9576;47.792;9.628;2023-07-28T15:36:17;25.50;99.90
18888;DHT22;9576;47.792;9.628;2023-07-28T15:39:20;25.20;99.90
18888;DHT22;9576;47.792;9.628;2023-07-28T15:42:22;25.00;99.90
18888;DHT22;9576;47.792;9.628;2023-07-28T15:45:25;24.70;99.90
18888;DHT22;9576;47.792;9.628;2023-07-28T15:48:27;24.50;99.90
18888;DHT22;9576;47.792;9.628;2023-07-28T15:51:29;24.40;99.90
18888;DHT22;9576;47.792;9.628;2023-07-28T15:54:32;24.30;99.90
18888;DHT22;9576;47.792;9.628;2023-07-28T15:57:34;24.20;99.90
18888;DHT22;9576;47.792;9.628;2023-07-28T16:00:36;24.00;99.90
18888;DHT22;9576;47.792;9.628;2023-07-28T16:03:38;23.80;99.90
18888;DHT22;9576;47.792;9.628;2023-07-28T16:06:40;23.40;99.90
18888;DHT22;9576;47.792;9.628;2023-07-28T16:09:43;23.00;99.90
18888;DHT22;9576;47.792;9.628;2023-07-28T16:12:46;22.60;99.90
18888;DHT22;9576;47.792;9.628;2023-07-28T16:15:48;22.30;99.90
18888;DHT22;9576;47.792;9.628;2023-07-28T16:18:50;22.00;99.90
18888;DHT22;9576;47.792;9.628;2023-07-28T16:21:52;21.90;99.90
18888;DHT22;9576;47.792;9.628;2023-07-28T16:24:57;21.80;99.90
18888;DHT22;9576;47.792;9.628;2023-07-28T16:27:59;21.80;99.90
18888;DHT22;9576;47.792;9.628;2023-07-28T16:31:01;21.90;99.90
18888;DHT22;9576;47.792;9.628;2023-07-28T16:34:03;21.90;99.90
18888;DHT22;9576;47.792;9.628;2023-07-28T16:37:05;21.90;99.90
18888;DHT22;9576;47.792;9.628;2023-07-28T16:40:09;21.70;99.90
18888;DHT22;9576;47.792;9.628;2023-07-28T16:43:11;21.80;99.90
18888;DHT22;9576;47.792;9.628;2023-07-28T16:46:13;21.90;99.90
18888;DHT22;9576;47.792;9.628;2023-07-28T16:49:15;21.90;99.90
18888;DHT22;9576;47.792;9.628;2023-07-28T16:52:17;21.80;99.90
18888;DHT22;9576;47.792;9.628;2023-07-28T16:55:22;21.80;99.90
18888;DHT22;9576;47.792;9.628;2023-07-28T16:58:24;21.60;99.90
18888;DHT22;9576;47.792;9.628;2023-07-28T17:01:26;21.30;99.90
18888;DHT22;9576;47.792;9.628;2023-07-28T17:04:28;21.20;99.90
18888;DHT22;9576;47.792;9.628;2023-07-28T17:07:30;21.10;99.90
18888;DHT22;9576;47.792;9.628;2023-07-28T17:10:34;21.10;99.90
18888;DHT22;9576;47.792;9.628;2023-07-28T17:13:36;21.00;99.90
18888;DHT22;9576;47.792;9.628;2023-07-28T17:16:37;21.00;99.90
18888;DHT22;9576;47.792;9.628;2023-07-28T17:19:39;21.30;99.90
18888;DHT22;9576;47.792;9.628;2023-07-28T17:22:41;22.30;99.90
18888;DHT22;9576;47.792;9.628;2023-07-28T17:25:44;23.20;99.90
18888;DHT22;9576;47.792;9.628;2023-07-28T17:28:46;24.20;99.90
18888;DHT22;9576;47.792;9.628;2023-07-28T17:31:48;25.10;99.90
18888;DHT22;9576;47.792;9.628;2023-07-28T17:34:51;25.10;99.90
18888;DHT22;9576;47.792;9.628;2023-07-28T17:37:53;24.80;99.90
18888;DHT22;9576;47.792;9.628;2023-07-28T17:40:57;24.10;99.90
18888;DHT22;9576;47.792;9.628;2023-07-28T17:43:58;23.40;99.90
18888;DHT22;9576;47.792;9.628;2023-07-28T17:47:00;22.90;99.90
18888;DHT22;9576;47.792;9.628;2023-07-28T17:50:03;22.50;99.90
18888;DHT22;9576;47.792;9.628;2023-07-28T17:53:05;22.20;99.90
18888;DHT22;9576;47.792;9.628;2023-07-28T17:56:08;21.90;99.90
18888;DHT22;9576;47.792;9.628;2023-07-28T17:59:10;21.60;99.90
18888;DHT22;9576;47.792;9.628;2023-07-28T18:02:12;21.30;99.90
18888;DHT22;9576;47.792;9.628;2023-07-28T18:05:14;21.00;99.90
18888;DHT22;9576;47.792;9.628;2023-07-28T18:08:16;20.70;99.90
18888;DHT22;9576;47.792;9.628;2023-07-28T18:11:19;20.50;99.90
18888;DHT22;9576;47.792;9.628;2023-07-28T18:14:21;20.30;99.90
18888;DHT22;9576;47.792;9.628;2023-07-28T18:17:23;20.20;99.90
18888;DHT22;9576;47.792;9.628;2023-07-28T18:20:25;20.10;99.90
18888;DHT22;9576;47.792;9.628;2023-07-28T18:23:27;20.00;99.90
18888;DHT22;9576;47.792;9.628;2023-07-28T18:26:31;19.90;99.90
18888;DHT22;9576;47.792;9.628;2023-07-28T18:29:32;19.70;99.90
18888;DHT22;9576;47.792;9.628;2023-07-28T18:32:35;19.60;99.90
18888;DHT22;9576;47.792;9.628;2023-07-28T18:35:37;19.60;99.90
18888;DHT22;9576;47.792;9.628;2023-07-28T18:38:39;19.60;99.90
18888;DHT22;9576;47.792;9.628;2023-07-28T18:41:42;19.50;99.90
18888;DHT22;9576;47.792;9.628;2023-07-28T18:44:44;19.50;99.90
18888;DHT22;9576;47.792;9.628;2023-07-28T18:47:46;19.40;99.90
18888;DHT22;9576;47.792;9.628;2023-07-28T18:50:48;19.40;99.90
18888;DHT22;9576;47.792;9.628;2023-07-28T18:53:50;19.40;99.90
18888;DHT22;9576;47.792;9.628;2023-07-28T18:56:53;19.20;99.90
18888;DHT22;9576;47.792;9.628;2023-07-28T18:59:55;19.20;99.90
18888;DHT22;9576;47.792;9.628;2023-07-28T19:02:57;19.10;99.90
18888;DHT22;9576;47.792;9.628;2023-07-28T19:05:59;19.00;99.90
18888;DHT22;9576;47.792;9.628;2023-07-28T19:09:02;19.00;99.90
18888;DHT22;9576;47.792;9.628;2023-07-28T19:12:06;19.00;99.90
18888;DHT22;9576;47.792;9.628;2023-07-28T19:15:09;19.00;99.90
18888;DHT22;9576;47.792;9.628;2023-07-28T19:18:11;18.90;99.90
18888;DHT22;9576;47.792;9.628;2023-07-28T19:21:13;18.90;99.90
18888;DHT22;9576;47.792;9.628;2023-07-28T19:24:16;18.80;99.90
18888;DHT22;9576;47.792;9.628;2023-07-28T19:27:19;18.80;99.90
18888;DHT22;9576;47.792;9.628;2023-07-28T19:30:21;18.80;99.90